Harbor Isle, New York
Current Conditions -  °F | °C
As of 2:51 PM on Thursday 30 Oct 2014 (Local Time) from KJFK Reporting Station
Scattered Clouds Scattered Clouds  
Wind Chill: 60°   Ceiling: Unl
Heat Index: 60°   Visibility: 10mi
Dew Point: 36°   Wind: 14mph
Humidity: 41%   Direction: 320°NW
Pressure: 29.97"   Gusts: NA
Location:  40.6062°N, 73.6508°W
Report Text: KJFK 301851Z 32012KT 10SM SCT055 16/02 A2997 RMK AO2 SLP148 T01560022
Loading
Personal Weather Stations






























Interactive Weather Map
Tropical Storm Tracking
New forecast layout! Learn more

10-Day Weather Forecast

Advertisements
Track Severe Weather on mobile